createdAt,value
2022-09-24T00:01:30.837Z,17.15
2022-09-24T00:04:00.800Z,10.18
2022-09-24T00:06:29.801Z,10.88
2022-09-24T00:08:57.848Z,11.20
2022-09-24T00:11:26.776Z,10.30
2022-09-24T00:13:55.575Z,10.57
2022-09-24T00:16:25.819Z,10.63
2022-09-24T00:18:53.721Z,8.88
2022-09-24T00:21:24.172Z,8.13
2022-09-24T00:23:53.756Z,9.63
2022-09-24T00:26:39.768Z,9.63
2022-09-24T00:29:08.216Z,9.75
2022-09-24T00:31:35.235Z,9.82
2022-09-24T00:34:02.775Z,11.05
2022-09-24T00:36:29.731Z,10.43
2022-09-24T00:38:59.708Z,11.02
2022-09-24T00:41:32.589Z,10.88
2022-09-24T00:44:00.039Z,11.27
2022-09-24T00:46:40.958Z,11.73
2022-09-24T00:49:17.729Z,11.25
2022-09-24T00:51:47.768Z,11.70
2022-09-24T00:54:23.198Z,11.35
2022-09-24T00:56:52.597Z,10.30
2022-09-24T00:59:24.025Z,11.90
2022-09-24T01:01:57.780Z,11.80
2022-09-24T01:04:27.697Z,11.38
2022-09-24T01:09:24.282Z,16.75
2022-09-24T01:12:14.600Z,17.08
2022-09-24T01:15:01.984Z,15.10
2022-09-24T01:17:53.055Z,15.77
2022-09-24T01:20:55.191Z,16.08
2022-09-24T01:23:50.490Z,13.68
2022-09-24T01:26:36.938Z,13.07
2022-09-24T01:29:30.251Z,13.30
2022-09-24T01:32:13.388Z,13.00
2022-09-24T01:34:50.502Z,12.88
2022-09-24T01:37:20.663Z,13.35
2022-09-24T01:39:48.537Z,13.98
2022-09-24T01:42:16.624Z,13.15
2022-09-24T01:44:44.762Z,12.25
2022-09-24T01:47:22.633Z,13.20
2022-09-24T01:49:51.542Z,12.27
2022-09-24T01:52:25.320Z,12.30
2022-09-24T01:54:55.407Z,10.93
2022-09-24T01:57:30.176Z,11.57
2022-09-24T02:00:10.409Z,11.32
2022-09-24T02:02:54.027Z,10.93
2022-09-24T02:05:33.749Z,12.13
2022-09-24T02:08:12.056Z,11.00
2022-09-24T02:10:51.104Z,11.43
2022-09-24T02:13:20.999Z,11.70
2022-09-24T02:15:52.564Z,10.77
2022-09-24T02:18:24.356Z,12.20
2022-09-24T02:20:52.719Z,12.35
2022-09-24T02:23:20.844Z,12.73
2022-09-24T02:25:54.560Z,14.73
2022-09-24T02:28:21.744Z,16.50
2022-09-24T02:31:08.806Z,15.57
2022-09-24T02:33:57.349Z,18.23
2022-09-24T02:36:25.100Z,18.23
2022-09-24T02:38:53.280Z,18.42
2022-09-24T02:41:23.553Z,17.77
2022-09-24T02:43:51.750Z,19.15
2022-09-24T02:46:19.241Z,17.83
2022-09-24T02:48:46.219Z,18.15
2022-09-24T02:51:13.171Z,19.02
2022-09-24T02:53:40.128Z,17.67
2022-09-24T02:56:08.070Z,16.85
2022-09-24T02:58:37.507Z,17.33
2022-09-24T03:01:05.521Z,16.70
2022-09-24T03:03:32.766Z,18.13
2022-09-24T03:05:59.746Z,18.02
2022-09-24T03:08:27.713Z,17.80
2022-09-24T03:10:56.289Z,18.52
2022-09-24T03:13:23.505Z,17.52
2022-09-24T03:15:50.684Z,16.45
2022-09-24T03:18:17.738Z,16.27
2022-09-24T03:20:53.913Z,17.30
2022-09-24T03:23:20.865Z,16.85
2022-09-24T03:25:47.857Z,15.32
2022-09-24T03:28:14.817Z,14.05
2022-09-24T03:31:00.218Z,14.00
2022-09-24T03:33:42.176Z,13.32
2022-09-24T03:36:21.033Z,13.95
2022-09-24T03:38:49.548Z,15.53
2022-09-24T03:41:17.363Z,13.85
2022-09-24T03:43:44.602Z,13.60
2022-09-24T03:46:12.959Z,14.27
2022-09-24T03:51:16.262Z,13.32
2022-09-24T03:53:43.300Z,13.18
2022-09-24T03:56:11.990Z,13.57
2022-09-24T03:58:39.573Z,14.20
2022-09-24T04:01:07.772Z,13.38
2022-09-24T04:03:36.265Z,13.50
2022-09-24T04:06:04.117Z,13.38
2022-09-24T04:08:31.786Z,12.73
2022-09-24T04:10:59.375Z,13.40
2022-09-24T04:13:26.384Z,13.63
2022-09-24T04:15:53.817Z,13.18
2022-09-24T04:22:39.494Z,12.40
2022-09-24T04:25:10.281Z,12.88
2022-09-24T04:27:41.604Z,11.35
2022-09-24T04:30:09.263Z,12.27
2022-09-24T04:32:36.207Z,12.45
2022-09-24T04:35:07.509Z,12.90
2022-09-24T04:37:34.993Z,13.68
2022-09-24T04:40:05.976Z,13.55
2022-09-24T04:42:32.964Z,14.70
2022-09-24T04:44:59.924Z,13.45
2022-09-24T04:47:26.845Z,14.68
2022-09-24T04:49:56.852Z,13.30
2022-09-24T04:52:26.825Z,13.80
2022-09-24T04:54:54.677Z,13.77
2022-09-24T04:57:22.432Z,14.05
2022-09-24T04:59:49.394Z,14.23
2022-09-24T05:02:17.088Z,13.55
2022-09-24T05:04:44.045Z,13.63
2022-09-24T05:07:11.596Z,13.65
2022-09-24T05:09:38.530Z,12.95
2022-09-24T05:12:05.953Z,14.10
2022-09-24T05:14:32.886Z,14.95
2022-09-24T05:16:59.836Z,14.65
2022-09-24T05:19:26.759Z,14.95
2022-09-24T05:21:53.687Z,16.65
2022-09-24T05:24:20.600Z,17.83
2022-09-24T05:27:05.890Z,18.25
2022-09-24T05:29:32.866Z,18.83
2022-09-24T05:32:02.864Z,18.75
2022-09-24T05:34:31.192Z,19.80
2022-09-24T05:36:58.354Z,20.40
2022-09-24T05:39:28.004Z,20.17
2022-09-24T05:41:58.684Z,19.25
2022-09-24T05:44:25.771Z,18.58
2022-09-24T05:46:53.244Z,18.60
2022-09-24T05:49:20.418Z,17.73
2022-09-24T05:51:51.395Z,18.52
2022-09-24T05:54:19.299Z,20.23
2022-09-24T05:56:46.661Z,19.40
2022-09-24T05:59:14.034Z,17.67
2022-09-24T06:01:41.137Z,17.30
2022-09-24T06:04:09.312Z,17.42
2022-09-24T06:06:36.463Z,16.58
2022-09-24T06:09:04.182Z,15.27
2022-09-24T06:11:40.351Z,15.48
2022-09-24T06:14:09.106Z,16.52
2022-09-24T06:16:36.482Z,16.50
2022-09-24T06:19:03.640Z,17.65
2022-09-24T06:21:30.581Z,19.15
2022-09-24T06:23:57.921Z,18.55
2022-09-24T06:26:26.398Z,18.75
2022-09-24T06:28:53.416Z,19.98
2022-09-24T06:31:20.654Z,18.63
2022-09-24T06:33:47.660Z,19.08
2022-09-24T06:36:14.802Z,17.42
2022-09-24T06:38:42.018Z,17.63
2022-09-24T06:41:10.226Z,17.77
2022-09-24T06:43:37.542Z,20.10
2022-09-24T06:46:05.047Z,22.02
2022-09-24T06:48:32.273Z,22.05
2022-09-24T06:50:59.434Z,19.10
2022-09-24T06:53:26.648Z,16.88
2022-09-24T06:56:03.370Z,15.48
2022-09-24T06:58:30.674Z,15.88
2022-09-24T07:01:02.447Z,15.35
2022-09-24T07:03:31.787Z,15.90
2022-09-24T07:06:04.412Z,14.68
2022-09-24T07:08:31.935Z,14.68
2022-09-24T07:11:00.292Z,14.48
2022-09-24T07:13:27.836Z,15.25
2022-09-24T07:15:54.838Z,15.18
2022-09-24T07:18:21.923Z,14.93
2022-09-24T07:20:56.306Z,15.80
2022-09-24T07:23:23.962Z,20.85
2022-09-24T07:25:55.340Z,18.92
2022-09-24T07:28:22.314Z,19.55
2022-09-24T07:30:57.460Z,18.85
2022-09-24T07:33:24.475Z,17.35
2022-09-24T07:35:51.419Z,14.95
2022-09-24T07:38:18.411Z,15.85
2022-09-24T07:40:45.441Z,13.85
2022-09-24T07:43:14.310Z,12.65
2022-09-24T07:45:43.564Z,12.57
2022-09-24T07:48:11.404Z,13.73
2022-09-24T07:50:41.151Z,12.90
2022-09-24T07:53:13.096Z,12.40
2022-09-24T07:55:41.361Z,14.15
2022-09-24T07:58:11.974Z,13.77
2022-09-24T08:00:39.065Z,12.57
2022-09-24T08:03:07.465Z,13.07
2022-09-24T08:05:34.629Z,13.60
2022-09-24T08:08:02.002Z,13.45
2022-09-24T08:10:29.177Z,13.48
2022-09-24T08:12:58.962Z,13.63
2022-09-24T08:15:26.032Z,13.15
2022-09-24T08:17:53.157Z,11.77
2022-09-24T08:20:21.127Z,13.05
2022-09-24T08:22:48.464Z,12.95
2022-09-24T08:25:15.447Z,13.18
2022-09-24T08:27:42.312Z,12.70
2022-09-24T08:30:09.784Z,11.38
2022-09-24T08:32:36.640Z,11.15
2022-09-24T08:35:03.798Z,10.98
2022-09-24T08:37:31.737Z,10.98
2022-09-24T08:39:58.648Z,10.85
2022-09-24T08:42:50.541Z,9.88
2022-09-24T08:45:36.458Z,10.00
2022-09-24T08:48:24.968Z,9.40
2022-09-24T08:51:01.301Z,9.90
2022-09-24T08:53:49.174Z,9.90
2022-09-24T08:56:22.154Z,10.15
2022-09-24T08:59:11.348Z,9.48
2022-09-24T09:01:44.617Z,8.95
2022-09-24T09:04:29.695Z,9.30
2022-09-24T09:07:11.051Z,9.90
2022-09-24T09:09:43.772Z,9.60
2022-09-24T09:13:03.245Z,9.10
2022-09-24T09:15:39.962Z,9.63
2022-09-24T09:18:32.775Z,9.77
2022-09-24T09:21:24.993Z,9.57
2022-09-24T09:30:59.016Z,9.90
2022-09-24T09:34:32.375Z,8.95
2022-09-24T09:37:05.142Z,8.65
2022-09-24T09:39:38.071Z,7.93
2022-09-24T09:42:26.770Z,8.38
2022-09-24T09:44:54.518Z,9.32
2022-09-24T09:47:27.328Z,8.45
2022-09-24T09:49:57.872Z,9.30
2022-09-24T09:52:40.052Z,9.23
2022-09-24T09:55:07.753Z,9.95
2022-09-24T09:57:38.717Z,10.13
2022-09-24T10:00:06.537Z,9.68
2022-09-24T10:02:43.610Z,9.05
2022-09-24T10:05:27.214Z,9.80
2022-09-24T10:07:58.183Z,8.85
2022-09-24T10:10:29.629Z,8.10
2022-09-24T10:13:12.429Z,8.95
2022-09-24T10:15:58.592Z,8.68
2022-09-24T10:18:50.199Z,8.32
2022-09-24T10:21:36.434Z,7.80
2022-09-24T10:24:07.207Z,6.55
2022-09-24T10:31:18.028Z,7.10
2022-09-24T10:33:49.483Z,7.25
2022-09-24T10:36:26.408Z,7.82
2022-09-24T10:39:08.595Z,7.30
2022-09-24T10:41:36.100Z,7.97
2022-09-24T10:44:13.996Z,8.52
2022-09-24T10:47:16.617Z,8.57
2022-09-24T10:54:20.565Z,8.18
2022-09-24T10:56:55.014Z,10.07
2022-09-24T10:59:34.467Z,9.80
2022-09-24T11:02:13.726Z,9.18
2022-09-24T11:05:48.678Z,8.77
2022-09-24T11:08:25.455Z,9.07
2022-09-24T11:11:17.811Z,8.73
2022-09-24T11:13:55.954Z,9.02
2022-09-24T11:16:39.039Z,7.57
2022-09-24T11:19:29.084Z,6.80
2022-09-24T11:22:20.243Z,7.03
2022-09-24T11:24:59.191Z,8.32
2022-09-24T11:27:47.072Z,8.27
2022-09-24T11:30:21.256Z,8.07
2022-09-24T11:33:15.111Z,8.30
2022-09-24T11:35:50.149Z,8.50
2022-09-24T11:38:41.689Z,7.25
2022-09-24T11:41:26.589Z,6.97
2022-09-24T11:44:21.395Z,5.90
2022-09-24T11:46:55.337Z,6.43
2022-09-24T11:49:43.431Z,6.18
2022-09-24T11:52:31.677Z,7.45
2022-09-24T11:55:19.938Z,7.82
2022-09-24T11:57:54.317Z,6.90
2022-09-24T12:04:56.776Z,7.75
2022-09-24T12:07:36.825Z,8.07
2022-09-24T12:10:25.547Z,7.47
2022-09-24T12:13:04.277Z,8.00
2022-09-24T12:15:45.932Z,8.18
2022-09-24T12:18:40.325Z,8.55
2022-09-24T12:21:59.492Z,8.73
2022-09-24T12:24:29.268Z,7.82
2022-09-24T12:29:54.450Z,8.82
2022-09-24T12:32:54.585Z,8.15
2022-09-24T12:35:33.665Z,8.45
2022-09-24T12:38:16.605Z,9.65
2022-09-24T12:41:09.338Z,11.02
2022-09-24T12:44:07.309Z,11.98
2022-09-24T12:46:41.904Z,10.57
2022-09-24T12:49:27.037Z,11.45
2022-09-24T12:51:59.463Z,10.18
2022-09-24T12:54:38.064Z,11.30
2022-09-24T13:01:32.445Z,10.98
2022-09-24T13:04:14.778Z,11.63
2022-09-24T13:06:45.048Z,10.98
2022-09-24T13:09:38.326Z,11.10
2022-09-24T13:12:18.116Z,11.40
2022-09-24T13:17:30.950Z,11.40
2022-09-24T13:20:01.026Z,11.38
2022-09-24T13:22:31.456Z,10.98
2022-09-24T13:25:07.834Z,10.75
2022-09-24T13:27:41.416Z,11.63
2022-09-24T13:30:26.380Z,11.10
2022-09-24T13:33:09.675Z,10.65
2022-09-24T13:36:13.784Z,10.55
2022-09-24T13:39:08.021Z,10.38
2022-09-24T13:41:40.981Z,11.35
2022-09-24T13:44:17.433Z,10.98
2022-09-24T13:46:47.166Z,10.10
2022-09-24T13:51:47.811Z,11.02
2022-09-24T13:54:23.581Z,10.50
2022-09-24T13:57:09.207Z,11.10
2022-09-24T13:59:36.222Z,10.75
2022-09-24T14:02:03.852Z,9.65
2022-09-24T14:04:31.271Z,10.70
2022-09-24T14:07:02.011Z,10.40
2022-09-24T14:09:33.223Z,10.63
2022-09-24T14:12:03.128Z,10.40
2022-09-24T14:14:31.140Z,11.65
2022-09-24T14:17:16.496Z,10.40
2022-09-24T14:19:43.653Z,10.45
2022-09-24T14:22:20.136Z,10.88
2022-09-24T14:25:13.833Z,10.38
2022-09-24T14:27:44.815Z,9.90
2022-09-24T14:30:27.116Z,9.23
2022-09-24T14:34:00.188Z,9.23
2022-09-24T14:36:29.330Z,9.70
2022-09-24T14:39:04.894Z,9.73
2022-09-24T14:41:36.467Z,9.93
2022-09-24T14:44:07.930Z,9.75
2022-09-24T14:46:48.804Z,9.77
2022-09-24T14:49:28.350Z,9.30
2022-09-24T14:52:01.366Z,9.90
2022-09-24T14:54:40.318Z,10.93
2022-09-24T14:57:19.456Z,11.27
2022-09-24T14:59:47.591Z,12.43
2022-09-24T15:02:37.284Z,12.07
2022-09-24T15:05:07.873Z,12.82
2022-09-24T15:07:35.526Z,12.27
2022-09-24T15:10:04.902Z,11.82
2022-09-24T15:12:35.088Z,11.38
2022-09-24T15:15:02.666Z,12.35
2022-09-24T15:17:31.000Z,12.70
2022-09-24T15:19:58.184Z,11.82
2022-09-24T15:22:27.017Z,12.40
2022-09-24T15:25:01.544Z,11.43
2022-09-24T15:31:47.988Z,12.63
2022-09-24T15:34:19.135Z,14.05
2022-09-24T15:36:48.895Z,13.35
2022-09-24T15:39:18.395Z,14.18
2022-09-24T15:41:45.366Z,14.45
2022-09-24T15:44:21.941Z,14.15
2022-09-24T15:46:51.242Z,13.75
2022-09-24T15:49:22.241Z,14.30
2022-09-24T15:51:59.812Z,15.27
2022-09-24T15:54:26.784Z,15.57
2022-09-24T15:56:54.567Z,17.35
2022-09-24T15:59:23.498Z,17.58
2022-09-24T16:01:54.309Z,23.00
2022-09-24T16:04:21.391Z,20.88
2022-09-24T16:06:49.582Z,19.70
2022-09-24T16:09:16.657Z,23.33
2022-09-24T16:11:43.599Z,23.15
2022-09-24T16:14:10.843Z,27.95
2022-09-24T16:16:41.294Z,23.77
2022-09-24T16:19:08.671Z,18.85
2022-09-24T16:21:36.133Z,16.75
2022-09-24T16:24:03.439Z,16.98
2022-09-24T16:26:31.179Z,17.38
2022-09-24T16:28:58.428Z,16.77
2022-09-24T16:31:25.460Z,21.25
2022-09-24T16:33:52.478Z,18.13
2022-09-24T16:36:19.637Z,21.38
2022-09-24T16:38:46.596Z,17.70
2022-09-24T16:41:13.497Z,16.35
2022-09-24T16:43:40.402Z,15.52
2022-09-24T16:46:09.555Z,15.00
2022-09-24T16:48:36.981Z,17.60
2022-09-24T16:51:11.665Z,17.77
2022-09-24T16:53:38.797Z,18.83
2022-09-24T16:56:11.140Z,19.10
2022-09-24T16:58:38.122Z,20.48
2022-09-24T17:01:07.394Z,20.23
2022-09-24T17:03:34.786Z,20.95
2022-09-24T17:07:12.967Z,20.75
2022-09-24T17:09:58.362Z,20.42
2022-09-24T17:12:25.358Z,20.52
2022-09-24T17:14:52.722Z,20.83
2022-09-24T17:17:20.177Z,20.10
2022-09-24T17:19:47.119Z,19.98
2022-09-24T17:22:14.076Z,21.15
2022-09-24T17:24:41.046Z,21.63
2022-09-24T17:27:08.254Z,21.50
2022-09-24T17:29:35.214Z,21.63
2022-09-24T17:32:02.365Z,21.60
2022-09-24T17:34:29.466Z,22.13
2022-09-24T17:36:57.126Z,22.33
2022-09-24T17:39:24.169Z,22.75
2022-09-24T17:41:51.439Z,22.15
2022-09-24T17:44:18.468Z,23.65
2022-09-24T17:46:45.644Z,24.92
2022-09-24T17:49:12.778Z,24.90
2022-09-24T17:51:40.206Z,23.45
2022-09-24T17:54:09.455Z,23.15
2022-09-24T17:56:39.249Z,22.60
2022-09-24T18:01:37.120Z,21.55
2022-09-24T18:04:07.430Z,23.67
2022-09-24T18:06:37.779Z,24.60
2022-09-24T18:09:05.453Z,25.15
2022-09-24T18:11:39.325Z,24.92
2022-09-24T18:14:06.345Z,26.17
2022-09-24T18:16:34.215Z,25.55
2022-09-24T18:19:02.892Z,27.30
2022-09-24T18:21:31.031Z,28.70
2022-09-24T18:23:59.736Z,29.35
2022-09-24T18:26:35.368Z,27.95
2022-09-24T18:29:14.630Z,29.52
2022-09-24T18:31:42.437Z,31.00
2022-09-24T18:34:13.238Z,29.80
2022-09-24T18:36:41.827Z,29.58
2022-09-24T18:39:14.743Z,28.23
2022-09-24T18:41:44.402Z,29.58
2022-09-24T18:44:11.617Z,29.42
2022-09-24T18:46:39.386Z,28.67
2022-09-24T18:49:06.607Z,28.25
2022-09-24T18:51:35.880Z,29.80
2022-09-24T18:54:08.488Z,28.02
2022-09-24T18:56:36.523Z,26.85
2022-09-24T18:59:09.745Z,27.60
2022-09-24T19:01:38.016Z,28.30
2022-09-24T19:04:06.209Z,27.45
2022-09-24T19:06:35.930Z,28.15
2022-09-24T19:09:05.020Z,26.33
2022-09-24T19:11:32.731Z,27.45
2022-09-24T19:13:59.707Z,27.10
2022-09-24T19:20:28.533Z,30.40
2022-09-24T19:23:00.262Z,32.80
2022-09-24T19:25:31.131Z,32.08
2022-09-24T19:27:58.102Z,33.42
2022-09-24T19:30:25.207Z,35.53
2022-09-24T19:32:52.177Z,33.72
2022-09-24T19:35:19.189Z,35.25
2022-09-24T19:37:46.241Z,33.90
2022-09-24T19:40:13.323Z,33.15
2022-09-24T19:42:40.278Z,33.55
2022-09-24T19:45:07.725Z,33.28
2022-09-24T19:47:34.719Z,34.10
2022-09-24T19:50:01.703Z,33.03
2022-09-24T19:52:28.726Z,31.80
2022-09-24T19:54:56.033Z,32.05
2022-09-24T20:01:35.764Z,28.17
2022-09-24T20:04:05.652Z,26.80
2022-09-24T20:06:34.712Z,28.42
2022-09-24T20:09:02.016Z,28.20
2022-09-24T20:11:32.622Z,28.85
2022-09-24T20:14:00.931Z,28.55
2022-09-24T20:16:32.674Z,28.52
2022-09-24T20:19:01.125Z,28.55
2022-09-24T20:21:32.860Z,27.05
2022-09-24T20:24:01.367Z,27.38
2022-09-24T20:26:46.835Z,28.88
2022-09-24T20:29:14.437Z,29.00
2022-09-24T20:31:42.754Z,28.52
2022-09-24T20:34:09.680Z,27.20
2022-09-24T20:36:36.620Z,28.20
2022-09-24T20:39:04.223Z,27.52
2022-09-24T20:41:31.213Z,25.27
2022-09-24T20:43:58.202Z,26.40
2022-09-24T20:46:28.697Z,26.27
2022-09-24T20:49:00.046Z,24.88
2022-09-24T20:51:33.627Z,25.88
2022-09-24T20:54:01.700Z,24.40
2022-09-24T20:56:30.801Z,24.90
2022-09-24T20:58:58.726Z,25.70
2022-09-24T21:05:44.830Z,23.30
2022-09-24T21:08:13.487Z,23.15
2022-09-24T21:10:40.536Z,24.17
2022-09-24T21:13:08.175Z,24.33
2022-09-24T21:15:35.728Z,24.70
2022-09-24T21:18:22.267Z,23.63
2022-09-24T21:20:49.980Z,23.98
2022-09-24T21:23:17.459Z,24.85
2022-09-24T21:25:57.924Z,24.73
2022-09-24T21:28:24.877Z,25.33
2022-09-24T21:31:03.422Z,26.65
2022-09-24T21:33:31.463Z,27.42
2022-09-24T21:36:03.557Z,26.38
2022-09-24T21:38:31.019Z,27.00
2022-09-24T21:40:58.411Z,26.45
2022-09-24T21:43:28.630Z,25.02
2022-09-24T21:46:05.071Z,24.63
2022-09-24T21:48:33.889Z,25.65
2022-09-24T21:51:06.050Z,24.73
2022-09-24T21:53:33.819Z,25.65
2022-09-24T21:56:01.394Z,25.67
2022-09-24T21:58:29.789Z,24.77
2022-09-24T22:01:03.173Z,27.02
2022-09-24T22:03:31.996Z,25.52
2022-09-24T22:06:03.533Z,26.00
2022-09-24T22:08:31.922Z,25.15
2022-09-24T22:11:08.760Z,26.02
2022-09-24T22:13:39.420Z,25.92
2022-09-24T22:16:08.727Z,28.20
2022-09-24T22:18:37.355Z,26.98
2022-09-24T22:21:10.071Z,28.98
2022-09-24T22:23:37.035Z,30.48
2022-09-24T22:26:05.027Z,31.33
2022-09-24T22:28:32.447Z,30.23
2022-09-24T22:31:03.240Z,30.73
2022-09-24T22:33:49.186Z,28.77
2022-09-24T22:36:16.650Z,27.35
2022-09-24T22:38:43.784Z,27.83
2022-09-24T22:41:12.144Z,26.02
2022-09-24T22:43:39.852Z,26.98
2022-09-24T22:46:09.533Z,25.85
2022-09-24T22:48:37.543Z,26.10
2022-09-24T22:55:30.319Z,24.48
2022-09-24T22:57:57.270Z,25.08
2022-09-24T23:00:24.270Z,24.92
2022-09-24T23:02:51.167Z,23.48
2022-09-24T23:05:18.226Z,25.27
2022-09-24T23:07:45.246Z,26.00
2022-09-24T23:10:12.455Z,25.02
2022-09-24T23:12:39.506Z,26.55
2022-09-24T23:15:07.156Z,29.27
2022-09-24T23:17:37.796Z,28.27
2022-09-24T23:20:08.684Z,26.92
2022-09-24T23:22:35.634Z,28.05
2022-09-24T23:25:02.710Z,28.00
2022-09-24T23:27:31.899Z,28.83
2022-09-24T23:30:00.730Z,26.83
2022-09-24T23:32:28.221Z,37.63
2022-09-24T23:34:55.089Z,36.75
2022-09-24T23:37:22.065Z,35.05
2022-09-24T23:39:49.010Z,33.22
2022-09-24T23:42:15.953Z,32.33
2022-09-24T23:44:43.155Z,33.65
2022-09-24T23:47:10.106Z,29.30
2022-09-24T23:49:37.066Z,30.95
2022-09-24T23:52:03.977Z,29.65
2022-09-24T23:54:31.167Z,29.02
2022-09-24T23:56:58.119Z,25.88
2022-09-24T23:59:25.053Z,24.88
